PGT61V EHAM-LTFJ
Flight info
| Callsign | PGT61V |
|---|---|
| Flight time | 3h 24m |
| Altitude | 35000 |
| Route | ARNEM L620 NOMKA DCT SUVUT L620 OMELO DCT EVIKU DCT BNO DCT ODNEM DCT NIT DCT ERGOM/N0445F370 DCT DODAR DCT MEDUD DCT GUPRO DCT LELTI DCT XANEX DCT ETOPO DCT ADORU UM19 IBODU |
| Aircraft | A320/M-SDE3FGHIRWY/LB1 |
Departure
| Time | 2026-05-06 06:00 |
|---|---|
| Airport | Amsterdam Airport Schiphol (EHAM) |
Arrival
| Time | 2026-05-06 09:24 |
|---|---|
| Airport | Istanbul Sabiha Gökçen International Airport (LTFJ) |
| Time | Latitude | Longitude | Altitude | Speed | Heading |
|---|---|---|---|---|---|
| 2026-05-06 05:30 | 52.30783 | 4.77292 | -1 ft | 0 kts | 183° |
| 2026-05-06 05:48 | 52.30806 | 4.77297 | -1 ft | 4 kts | 197° |
| 2026-05-06 05:48 | 52.30823 | 4.77309 | -1 ft | 4 kts | 142° |
| 2026-05-06 05:48 | 52.30836 | 4.77284 | -1 ft | 4 kts | 111° |
| 2026-05-06 05:48 | 52.30838 | 4.77273 | -1 ft | 0 kts | 109° |
| 2026-05-06 05:51 | 52.30838 | 4.77276 | -1 ft | 0 kts | 101° |
| 2026-05-06 05:52 | 52.30838 | 4.77279 | -1 ft | 1 kts | 94° |
| 2026-05-06 05:52 | 52.30838 | 4.77297 | -1 ft | 3 kts | 91° |
| 2026-05-06 05:52 | 52.30839 | 4.77340 | -1 ft | 5 kts | 90° |
| 2026-05-06 05:52 | 52.30837 | 4.77415 | -1 ft | 8 kts | 92° |
| 2026-05-06 05:53 | 52.30832 | 4.77524 | -1 ft | 10 kts | 95° |
| 2026-05-06 05:53 | 52.30875 | 4.77607 | -1 ft | 12 kts | 11° |
| 2026-05-06 05:53 | 52.30972 | 4.77616 | -1 ft | 15 kts | 2° |
| 2026-05-06 05:53 | 52.31087 | 4.77627 | -1 ft | 17 kts | 3° |
| 2026-05-06 05:54 | 52.31213 | 4.77640 | -1 ft | 19 kts | 4° |
| 2026-05-06 05:54 | 52.31347 | 4.77651 | -1 ft | 20 kts | 3° |
| 2026-05-06 05:54 | 52.31468 | 4.77624 | -1 ft | 18 kts | 329° |
| 2026-05-06 05:54 | 52.31561 | 4.77471 | -1 ft | 20 kts | 301° |
| 2026-05-06 05:55 | 52.31573 | 4.77243 | -1 ft | 21 kts | 267° |
| 2026-05-06 05:55 | 52.31565 | 4.76992 | -1 ft | 22 kts | 266° |
| 2026-05-06 05:55 | 52.31558 | 4.76757 | -1 ft | 21 kts | 267° |
| 2026-05-06 05:55 | 52.31549 | 4.76514 | -1 ft | 21 kts | 266° |
| 2026-05-06 05:56 | 52.31542 | 4.76266 | -1 ft | 23 kts | 268° |
| 2026-05-06 05:56 | 52.31532 | 4.76003 | -1 ft | 24 kts | 266° |
| 2026-05-06 05:56 | 52.31523 | 4.75746 | -1 ft | 19 kts | 268° |
| 2026-05-06 05:56 | 52.31519 | 4.75534 | -1 ft | 20 kts | 265° |
| 2026-05-06 05:57 | 52.31509 | 4.75302 | -1 ft | 21 kts | 266° |
| 2026-05-06 05:57 | 52.31500 | 4.75051 | -1 ft | 23 kts | 267° |
| 2026-05-06 05:57 | 52.31492 | 4.74850 | -1 ft | 16 kts | 266° |
| 2026-05-06 05:57 | 52.31499 | 4.74693 | -1 ft | 13 kts | 310° |
| 2026-05-06 05:58 | 52.31588 | 4.74661 | -1 ft | 14 kts | 357° |
| 2026-05-06 05:58 | 52.31657 | 4.74701 | 0 ft | 8 kts | 48° |
| 2026-05-06 05:58 | 52.31668 | 4.74782 | -1 ft | 7 kts | 84° |
| 2026-05-06 05:58 | 52.31670 | 4.74861 | -2 ft | 8 kts | 87° |
| 2026-05-06 05:59 | 52.31682 | 4.75204 | -3 ft | 64 kts | 86° |
| 2026-05-06 05:59 | 52.31725 | 4.76288 | -1 ft | 124 kts | 86° |
| 2026-05-06 05:59 | 52.31788 | 4.77965 | 4 ft | 169 kts | 86° |
| 2026-05-06 05:59 | 52.31846 | 4.79929 | 439 ft | 177 kts | 85° |
| 2026-05-06 06:00 | 52.31911 | 4.81955 | 1178 ft | 175 kts | 84° |
| 2026-05-06 06:00 | 52.31980 | 4.83937 | 1842 ft | 176 kts | 84° |
| 2026-05-06 06:00 | 52.32039 | 4.86019 | 2133 ft | 195 kts | 89° |
| 2026-05-06 06:00 | 52.31673 | 4.88313 | 2356 ft | 224 kts | 109° |
| 2026-05-06 06:01 | 52.31027 | 4.90773 | 2701 ft | 247 kts | 109° |
| 2026-05-06 06:01 | 52.30332 | 4.93395 | 3395 ft | 254 kts | 109° |
| 2026-05-06 06:01 | 52.29639 | 4.96017 | 4211 ft | 256 kts | 107° |
| 2026-05-06 06:01 | 52.29080 | 4.98777 | 5007 ft | 257 kts | 104° |
| 2026-05-06 06:02 | 52.28576 | 5.01600 | 5776 ft | 261 kts | 103° |
| 2026-05-06 06:02 | 52.28086 | 5.04480 | 6537 ft | 265 kts | 103° |
| 2026-05-06 06:02 | 52.27593 | 5.07400 | 7268 ft | 269 kts | 104° |
| 2026-05-06 06:02 | 52.27091 | 5.10364 | 7979 ft | 274 kts | 104° |
| 2026-05-06 06:03 | 52.26573 | 5.13386 | 8678 ft | 278 kts | 104° |
| 2026-05-06 06:03 | 52.26040 | 5.16446 | 9362 ft | 283 kts | 105° |
| 2026-05-06 06:03 | 52.25501 | 5.19511 | 10036 ft | 287 kts | 105° |
| 2026-05-06 06:03 | 52.24932 | 5.22747 | 10267 ft | 309 kts | 105° |
| 2026-05-06 06:04 | 52.24412 | 5.26282 | 10425 ft | 331 kts | 98° |
| 2026-05-06 06:04 | 52.24189 | 5.30138 | 10562 ft | 351 kts | 94° |
| 2026-05-06 06:04 | 52.23994 | 5.34174 | 11016 ft | 360 kts | 94° |
| 2026-05-06 06:04 | 52.23790 | 5.38274 | 11617 ft | 364 kts | 94° |
| 2026-05-06 06:05 | 52.23578 | 5.42409 | 12226 ft | 368 kts | 94° |
| 2026-05-06 06:05 | 52.23364 | 5.46543 | 12804 ft | 372 kts | 95° |
| 2026-05-06 06:05 | 52.23119 | 5.50815 | 13381 ft | 376 kts | 98° |
| 2026-05-06 06:05 | 52.22530 | 5.54922 | 13938 ft | 379 kts | 109° |
| 2026-05-06 06:06 | 52.21576 | 5.58961 | 14492 ft | 382 kts | 112° |
| 2026-05-06 06:06 | 52.20592 | 5.62999 | 15054 ft | 385 kts | 112° |
| 2026-05-06 06:06 | 52.19600 | 5.67064 | 15581 ft | 388 kts | 112° |
| 2026-05-06 06:06 | 52.18600 | 5.71165 | 16072 ft | 391 kts | 112° |
| 2026-05-06 06:07 | 52.17593 | 5.75298 | 16538 ft | 395 kts | 112° |
| 2026-05-06 06:07 | 52.16576 | 5.79481 | 17005 ft | 398 kts | 112° |
| 2026-05-06 06:07 | 52.15565 | 5.83626 | 17456 ft | 401 kts | 112° |
| 2026-05-06 06:07 | 52.14531 | 5.87851 | 17904 ft | 404 kts | 112° |
| 2026-05-06 06:08 | 52.13485 | 5.92117 | 18356 ft | 407 kts | 113° |
| 2026-05-06 06:08 | 52.12430 | 5.96405 | 18798 ft | 409 kts | 113° |
| 2026-05-06 06:08 | 52.11363 | 6.00714 | 19252 ft | 412 kts | 113° |
| 2026-05-06 06:08 | 52.10293 | 6.05047 | 19677 ft | 414 kts | 112° |
| 2026-05-06 06:09 | 52.09462 | 6.09543 | 20092 ft | 417 kts | 103° |
| 2026-05-06 06:09 | 52.08970 | 6.14209 | 20518 ft | 420 kts | 101° |
| 2026-05-06 06:09 | 52.08495 | 6.18850 | 20917 ft | 422 kts | 101° |
| 2026-05-06 06:09 | 52.08008 | 6.23555 | 21315 ft | 424 kts | 101° |
| 2026-05-06 06:10 | 52.07513 | 6.28296 | 21700 ft | 426 kts | 101° |
| 2026-05-06 06:10 | 52.07013 | 6.33061 | 22078 ft | 428 kts | 101° |
| 2026-05-06 06:10 | 52.06509 | 6.37835 | 22434 ft | 430 kts | 101° |
| 2026-05-06 06:10 | 52.05998 | 6.42636 | 22779 ft | 432 kts | 101° |
| 2026-05-06 06:11 | 52.05487 | 6.47401 | 23111 ft | 434 kts | 101° |
| 2026-05-06 06:11 | 52.04969 | 6.52237 | 23443 ft | 436 kts | 101° |
| 2026-05-06 06:11 | 52.04448 | 6.57101 | 23768 ft | 438 kts | 101° |
| 2026-05-06 06:11 | 52.03925 | 6.61981 | 24086 ft | 440 kts | 101° |
| 2026-05-06 06:12 | 52.03399 | 6.66881 | 24393 ft | 442 kts | 101° |
| 2026-05-06 06:12 | 52.02863 | 6.71801 | 24710 ft | 443 kts | 101° |
| 2026-05-06 06:12 | 52.02316 | 6.76732 | 25024 ft | 444 kts | 102° |
| 2026-05-06 06:12 | 52.01678 | 6.81646 | 25329 ft | 445 kts | 104° |
| 2026-05-06 06:13 | 52.00949 | 6.86461 | 25621 ft | 446 kts | 106° |
| 2026-05-06 06:13 | 52.00146 | 6.91333 | 25915 ft | 447 kts | 107° |
| 2026-05-06 06:13 | 51.99317 | 6.96197 | 26199 ft | 448 kts | 107° |
| 2026-05-06 06:13 | 51.98491 | 7.01080 | 26482 ft | 449 kts | 107° |
| 2026-05-06 06:14 | 51.97681 | 7.05968 | 26753 ft | 450 kts | 106° |
| 2026-05-06 06:14 | 51.96882 | 7.10880 | 27010 ft | 451 kts | 106° |
| 2026-05-06 06:14 | 51.96052 | 7.15785 | 27261 ft | 452 kts | 107° |
| 2026-05-06 06:14 | 51.95170 | 7.20682 | 27510 ft | 453 kts | 108° |
| 2026-05-06 06:15 | 51.94253 | 7.25565 | 27757 ft | 454 kts | 108° |
| 2026-05-06 06:15 | 51.93334 | 7.30375 | 28075 ft | 452 kts | 109° |
| 2026-05-06 06:15 | 51.92402 | 7.35245 | 28438 ft | 450 kts | 109° |
| 2026-05-06 06:15 | 51.91483 | 7.40085 | 28765 ft | 449 kts | 108° |
| 2026-05-06 06:16 | 51.90572 | 7.44909 | 29087 ft | 448 kts | 108° |
| 2026-05-06 06:16 | 51.89664 | 7.49725 | 29403 ft | 447 kts | 108° |
| 2026-05-06 06:16 | 51.88760 | 7.54540 | 29713 ft | 446 kts | 108° |
| 2026-05-06 06:16 | 51.87873 | 7.59267 | 29980 ft | 446 kts | 108° |
| 2026-05-06 06:17 | 51.86968 | 7.64071 | 30167 ft | 447 kts | 107° |
| 2026-05-06 06:17 | 51.86057 | 7.68891 | 30408 ft | 448 kts | 108° |
| 2026-05-06 06:17 | 51.85183 | 7.73724 | 30688 ft | 447 kts | 105° |
| 2026-05-06 06:17 | 51.84422 | 7.78587 | 30985 ft | 446 kts | 104° |
| 2026-05-06 06:18 | 51.83740 | 7.83478 | 31283 ft | 445 kts | 103° |
| 2026-05-06 06:18 | 51.83096 | 7.88370 | 31584 ft | 444 kts | 103° |
| 2026-05-06 06:18 | 51.82456 | 7.93248 | 31875 ft | 443 kts | 103° |
| 2026-05-06 06:18 | 51.81798 | 7.98096 | 32146 ft | 442 kts | 104° |
| 2026-05-06 06:19 | 51.81126 | 8.02871 | 32433 ft | 441 kts | 104° |
| 2026-05-06 06:19 | 51.80428 | 8.07684 | 32707 ft | 439 kts | 105° |
| 2026-05-06 06:19 | 51.79721 | 8.12476 | 32982 ft | 438 kts | 105° |
| 2026-05-06 06:19 | 51.79012 | 8.17256 | 33240 ft | 437 kts | 105° |
| 2026-05-06 06:20 | 51.78308 | 8.22028 | 33490 ft | 437 kts | 105° |
| 2026-05-06 06:20 | 51.77607 | 8.26777 | 33729 ft | 436 kts | 105° |
| 2026-05-06 06:20 | 51.76902 | 8.31565 | 33970 ft | 436 kts | 105° |
| 2026-05-06 06:20 | 51.76208 | 8.36324 | 34217 ft | 435 kts | 105° |
| 2026-05-06 06:21 | 51.75542 | 8.41091 | 34415 ft | 436 kts | 105° |
| 2026-05-06 06:21 | 51.74901 | 8.45813 | 34584 ft | 437 kts | 104° |
| 2026-05-06 06:21 | 51.74255 | 8.50615 | 34718 ft | 439 kts | 104° |
| 2026-05-06 06:21 | 51.73602 | 8.55431 | 34758 ft | 441 kts | 105° |
| 2026-05-06 06:22 | 51.72265 | 8.65123 | 34756 ft | 443 kts | 105° |
| 2026-05-06 06:22 | 51.70903 | 8.74823 | 34757 ft | 444 kts | 105° |
| 2026-05-06 06:23 | 51.69531 | 8.84488 | 34756 ft | 446 kts | 105° |
| 2026-05-06 06:23 | 51.68145 | 8.94236 | 34757 ft | 447 kts | 105° |
| 2026-05-06 06:24 | 51.66754 | 9.03984 | 34753 ft | 446 kts | 105° |
| 2026-05-06 06:24 | 51.65354 | 9.13729 | 34747 ft | 447 kts | 105° |
| 2026-05-06 06:25 | 51.63945 | 9.23467 | 34745 ft | 447 kts | 105° |
| 2026-05-06 06:26 | 51.61825 | 9.38008 | 34743 ft | 447 kts | 105° |
| 2026-05-06 06:26 | 51.60387 | 9.47764 | 34747 ft | 447 kts | 105° |
| 2026-05-06 06:27 | 51.58948 | 9.57489 | 34751 ft | 447 kts | 105° |
| 2026-05-06 06:27 | 51.57503 | 9.67215 | 34755 ft | 447 kts | 105° |
| 2026-05-06 06:28 | 51.56059 | 9.76872 | 34757 ft | 447 kts | 105° |
| 2026-05-06 06:28 | 51.54601 | 9.86579 | 34761 ft | 447 kts | 106° |
| 2026-05-06 06:29 | 51.53125 | 9.96272 | 34764 ft | 447 kts | 106° |
| 2026-05-06 06:29 | 51.51643 | 10.05954 | 34765 ft | 447 kts | 106° |
| 2026-05-06 06:30 | 51.50167 | 10.15573 | 34761 ft | 447 kts | 106° |
| 2026-05-06 06:30 | 51.48673 | 10.25254 | 34761 ft | 447 kts | 106° |
| 2026-05-06 06:31 | 51.47166 | 10.34930 | 34759 ft | 448 kts | 106° |
| 2026-05-06 06:31 | 51.45647 | 10.44621 | 34760 ft | 448 kts | 107° |
| 2026-05-06 06:32 | 51.44133 | 10.54265 | 34759 ft | 449 kts | 107° |
| 2026-05-06 06:32 | 51.42610 | 10.63977 | 34756 ft | 450 kts | 107° |
| 2026-05-06 06:33 | 51.41065 | 10.73721 | 34754 ft | 452 kts | 107° |
| 2026-05-06 06:33 | 51.39508 | 10.83476 | 34760 ft | 453 kts | 107° |
| 2026-05-06 06:34 | 51.37941 | 10.93241 | 34761 ft | 453 kts | 107° |
| 2026-05-06 06:34 | 51.36368 | 11.02955 | 34763 ft | 454 kts | 107° |
| 2026-05-06 06:35 | 51.34783 | 11.12739 | 34766 ft | 455 kts | 108° |
| 2026-05-06 06:35 | 51.33184 | 11.22531 | 34770 ft | 455 kts | 108° |
| 2026-05-06 06:36 | 51.31572 | 11.32321 | 34774 ft | 456 kts | 108° |
| 2026-05-06 06:36 | 51.29960 | 11.42057 | 34778 ft | 456 kts | 108° |
| 2026-05-06 06:37 | 51.28322 | 11.51849 | 34780 ft | 456 kts | 108° |
| 2026-05-06 06:37 | 51.26657 | 11.61634 | 34775 ft | 457 kts | 108° |
| 2026-05-06 06:38 | 51.25006 | 11.71425 | 34776 ft | 457 kts | 108° |
| 2026-05-06 06:38 | 51.23353 | 11.81209 | 34776 ft | 456 kts | 108° |
| 2026-05-06 06:39 | 51.21704 | 11.90906 | 34779 ft | 456 kts | 108° |
| 2026-05-06 06:39 | 51.20036 | 12.00675 | 34777 ft | 456 kts | 108° |
| 2026-05-06 06:40 | 51.18361 | 12.10427 | 34773 ft | 456 kts | 109° |
| 2026-05-06 06:40 | 51.16673 | 12.20177 | 34769 ft | 456 kts | 109° |
| 2026-05-06 06:41 | 51.14985 | 12.29849 | 34768 ft | 457 kts | 109° |
| 2026-05-06 06:41 | 51.13275 | 12.39590 | 34767 ft | 457 kts | 109° |
| 2026-05-06 06:42 | 51.11546 | 12.49314 | 34769 ft | 457 kts | 110° |
| 2026-05-06 06:42 | 51.09816 | 12.58986 | 34769 ft | 457 kts | 110° |
| 2026-05-06 06:43 | 51.08069 | 12.68715 | 34770 ft | 458 kts | 110° |
| 2026-05-06 06:43 | 51.06317 | 12.78434 | 34768 ft | 457 kts | 110° |
| 2026-05-06 06:44 | 51.04552 | 12.88154 | 34769 ft | 458 kts | 110° |
| 2026-05-06 06:44 | 51.02778 | 12.97872 | 34767 ft | 458 kts | 110° |
| 2026-05-06 06:45 | 51.01016 | 13.07505 | 34763 ft | 458 kts | 110° |
| 2026-05-06 06:45 | 50.99228 | 13.17206 | 34763 ft | 458 kts | 110° |
| 2026-05-06 06:46 | 50.97429 | 13.26898 | 34762 ft | 458 kts | 111° |
| 2026-05-06 06:46 | 50.95630 | 13.36599 | 34765 ft | 459 kts | 110° |
| 2026-05-06 06:47 | 50.93901 | 13.46265 | 34759 ft | 459 kts | 110° |
| 2026-05-06 06:47 | 50.92165 | 13.55982 | 34755 ft | 458 kts | 110° |
| 2026-05-06 06:48 | 50.90351 | 13.65665 | 34752 ft | 458 kts | 111° |
| 2026-05-06 06:48 | 50.88506 | 13.75327 | 34751 ft | 459 kts | 111° |
| 2026-05-06 06:49 | 50.86664 | 13.85001 | 34751 ft | 458 kts | 111° |
| 2026-05-06 06:49 | 50.84757 | 13.94547 | 34753 ft | 455 kts | 117° |
| 2026-05-06 06:50 | 50.81540 | 14.02968 | 34754 ft | 443 kts | 135° |
| 2026-05-06 06:50 | 50.77154 | 14.09680 | 34755 ft | 438 kts | 142° |
| 2026-05-06 06:51 | 50.72669 | 14.16127 | 34749 ft | 439 kts | 142° |
| 2026-05-06 06:51 | 50.68157 | 14.22618 | 34755 ft | 439 kts | 142° |
| 2026-05-06 06:52 | 50.63637 | 14.29109 | 34758 ft | 439 kts | 142° |
| 2026-05-06 06:52 | 50.59111 | 14.35587 | 34762 ft | 440 kts | 142° |
| 2026-05-06 06:53 | 50.54581 | 14.42059 | 34766 ft | 440 kts | 142° |
| 2026-05-06 06:53 | 50.50071 | 14.48471 | 34769 ft | 440 kts | 143° |
| 2026-05-06 06:54 | 50.45564 | 14.55006 | 34778 ft | 444 kts | 137° |
| 2026-05-06 06:54 | 50.41385 | 14.62160 | 34776 ft | 445 kts | 137° |
| 2026-05-06 06:55 | 50.37199 | 14.69310 | 34785 ft | 445 kts | 137° |
| 2026-05-06 06:55 | 50.33031 | 14.76394 | 34791 ft | 445 kts | 137° |
| 2026-05-06 06:56 | 50.28831 | 14.83509 | 34799 ft | 445 kts | 138° |
| 2026-05-06 06:56 | 50.24629 | 14.90607 | 34800 ft | 445 kts | 137° |
| 2026-05-06 06:57 | 50.20425 | 14.97699 | 34807 ft | 445 kts | 137° |
| 2026-05-06 06:57 | 50.16247 | 15.04745 | 34798 ft | 445 kts | 137° |
| 2026-05-06 06:58 | 50.12026 | 15.11822 | 34800 ft | 446 kts | 138° |
| 2026-05-06 06:58 | 50.07793 | 15.18892 | 34804 ft | 446 kts | 138° |
| 2026-05-06 06:59 | 50.03552 | 15.25968 | 34811 ft | 447 kts | 138° |
| 2026-05-06 06:59 | 49.99332 | 15.32981 | 34811 ft | 447 kts | 138° |
| 2026-05-06 07:00 | 49.95065 | 15.40036 | 34812 ft | 449 kts | 138° |
| 2026-05-06 07:00 | 49.90781 | 15.47100 | 34814 ft | 450 kts | 138° |
| 2026-05-06 07:01 | 49.86492 | 15.54189 | 34817 ft | 451 kts | 138° |
| 2026-05-06 07:01 | 49.82191 | 15.61264 | 34831 ft | 451 kts | 139° |
| 2026-05-06 07:02 | 49.77912 | 15.68267 | 34831 ft | 451 kts | 139° |
| 2026-05-06 07:02 | 49.73603 | 15.75330 | 34831 ft | 451 kts | 139° |
| 2026-05-06 07:03 | 49.69292 | 15.82383 | 34831 ft | 451 kts | 139° |
| 2026-05-06 07:03 | 49.64972 | 15.89420 | 34836 ft | 452 kts | 139° |
| 2026-05-06 07:04 | 49.60669 | 15.96389 | 34840 ft | 452 kts | 139° |
| 2026-05-06 07:04 | 49.56326 | 16.03395 | 34847 ft | 452 kts | 139° |
| 2026-05-06 07:05 | 49.51987 | 16.10390 | 34847 ft | 452 kts | 139° |
| 2026-05-06 07:05 | 49.47641 | 16.17378 | 34848 ft | 452 kts | 139° |
| 2026-05-06 07:06 | 49.43287 | 16.24350 | 34849 ft | 452 kts | 139° |
| 2026-05-06 07:06 | 49.38955 | 16.31281 | 34848 ft | 453 kts | 139° |
| 2026-05-06 07:07 | 49.34594 | 16.38253 | 34845 ft | 453 kts | 139° |
| 2026-05-06 07:07 | 49.30224 | 16.45213 | 34846 ft | 453 kts | 139° |
| 2026-05-06 07:08 | 49.25841 | 16.52166 | 34844 ft | 454 kts | 139° |
| 2026-05-06 07:08 | 49.21479 | 16.59056 | 34849 ft | 454 kts | 139° |
| 2026-05-06 07:09 | 49.17077 | 16.65998 | 34854 ft | 455 kts | 139° |
| 2026-05-06 07:09 | 49.12676 | 16.72949 | 34855 ft | 455 kts | 138° |
| 2026-05-06 07:10 | 49.08347 | 16.79933 | 34855 ft | 456 kts | 137° |
| 2026-05-06 07:10 | 49.04003 | 16.86982 | 34857 ft | 456 kts | 137° |
| 2026-05-06 07:11 | 48.99636 | 16.93990 | 34855 ft | 456 kts | 138° |
| 2026-05-06 07:11 | 48.95252 | 17.00981 | 34855 ft | 457 kts | 138° |
| 2026-05-06 07:12 | 48.90862 | 17.07967 | 34857 ft | 457 kts | 138° |
| 2026-05-06 07:12 | 48.86491 | 17.14918 | 34857 ft | 458 kts | 138° |
| 2026-05-06 07:13 | 48.82092 | 17.21915 | 34858 ft | 458 kts | 137° |
| 2026-05-06 07:13 | 48.77692 | 17.28919 | 34862 ft | 459 kts | 137° |
| 2026-05-06 07:14 | 48.73285 | 17.35921 | 34866 ft | 459 kts | 137° |
| 2026-05-06 07:14 | 48.68897 | 17.42864 | 34870 ft | 459 kts | 137° |
| 2026-05-06 07:15 | 48.64475 | 17.49838 | 34877 ft | 460 kts | 137° |
| 2026-05-06 07:15 | 48.60042 | 17.56824 | 34881 ft | 460 kts | 137° |
| 2026-05-06 07:16 | 48.55604 | 17.63796 | 34885 ft | 461 kts | 137° |
| 2026-05-06 07:16 | 48.51174 | 17.70719 | 34890 ft | 462 kts | 137° |
| 2026-05-06 07:17 | 48.46708 | 17.77683 | 34891 ft | 462 kts | 137° |
| 2026-05-06 07:17 | 48.42233 | 17.84639 | 34891 ft | 463 kts | 137° |
| 2026-05-06 07:18 | 48.37753 | 17.91601 | 34890 ft | 463 kts | 137° |
| 2026-05-06 07:18 | 48.33298 | 17.98505 | 34890 ft | 464 kts | 137° |
| 2026-05-06 07:19 | 48.28793 | 18.05462 | 34891 ft | 464 kts | 138° |
| 2026-05-06 07:19 | 48.24178 | 18.12219 | 34891 ft | 464 kts | 140° |
| 2026-05-06 07:20 | 48.19470 | 18.18832 | 34894 ft | 464 kts | 140° |
| 2026-05-06 07:20 | 48.14796 | 18.25412 | 34902 ft | 464 kts | 140° |
| 2026-05-06 07:21 | 48.10113 | 18.32069 | 34906 ft | 464 kts | 140° |
| 2026-05-06 07:21 | 48.05429 | 18.38723 | 34909 ft | 465 kts | 140° |
| 2026-05-06 07:22 | 48.00733 | 18.45367 | 34910 ft | 465 kts | 140° |
| 2026-05-06 07:22 | 47.96036 | 18.51997 | 34907 ft | 465 kts | 140° |
| 2026-05-06 07:23 | 47.91361 | 18.58585 | 34904 ft | 466 kts | 140° |
| 2026-05-06 07:23 | 47.86637 | 18.65207 | 34904 ft | 467 kts | 140° |
| 2026-05-06 07:24 | 47.81897 | 18.71826 | 34910 ft | 467 kts | 140° |
| 2026-05-06 07:24 | 47.77128 | 18.78406 | 34915 ft | 468 kts | 140° |
| 2026-05-06 07:25 | 47.72308 | 18.84918 | 34916 ft | 468 kts | 141° |
| 2026-05-06 07:25 | 47.67512 | 18.91359 | 34916 ft | 469 kts | 140° |
| 2026-05-06 07:26 | 47.62676 | 18.97868 | 34921 ft | 469 kts | 140° |
| 2026-05-06 07:26 | 47.57836 | 19.04382 | 34930 ft | 470 kts | 140° |
| 2026-05-06 07:27 | 47.53019 | 19.10829 | 34930 ft | 471 kts | 140° |
| 2026-05-06 07:27 | 47.48159 | 19.17324 | 35208 ft | 471 kts | 140° |
| 2026-05-06 07:27 | 47.45727 | 19.20564 | 35450 ft | 470 kts | 140° |
| 2026-05-06 07:28 | 47.43302 | 19.23789 | 35676 ft | 469 kts | 140° |
| 2026-05-06 07:28 | 47.40875 | 19.27016 | 35887 ft | 468 kts | 140° |
| 2026-05-06 07:28 | 47.36040 | 19.33459 | 36278 ft | 468 kts | 140° |
| 2026-05-06 07:29 | 47.33626 | 19.36669 | 36452 ft | 468 kts | 140° |
| 2026-05-06 07:29 | 47.31236 | 19.39830 | 36631 ft | 467 kts | 140° |
| 2026-05-06 07:29 | 47.28816 | 19.43026 | 36812 ft | 467 kts | 140° |
| 2026-05-06 07:29 | 47.26400 | 19.46217 | 36941 ft | 465 kts | 140° |
| 2026-05-06 07:30 | 47.21606 | 19.52537 | 36952 ft | 460 kts | 140° |
| 2026-05-06 07:30 | 47.16828 | 19.58775 | 36962 ft | 459 kts | 141° |
| 2026-05-06 07:31 | 47.12018 | 19.64964 | 36966 ft | 460 kts | 141° |
| 2026-05-06 07:31 | 47.07235 | 19.71093 | 36970 ft | 460 kts | 141° |
| 2026-05-06 07:32 | 47.02418 | 19.77280 | 36971 ft | 460 kts | 141° |
| 2026-05-06 07:32 | 46.97600 | 19.83459 | 36969 ft | 461 kts | 141° |
| 2026-05-06 07:33 | 46.92771 | 19.89638 | 36967 ft | 461 kts | 141° |
| 2026-05-06 07:33 | 46.87965 | 19.95765 | 36963 ft | 462 kts | 141° |
| 2026-05-06 07:34 | 46.83114 | 20.01933 | 36966 ft | 463 kts | 141° |
| 2026-05-06 07:34 | 46.78255 | 20.08104 | 36965 ft | 464 kts | 141° |
| 2026-05-06 07:35 | 46.73381 | 20.14282 | 36966 ft | 464 kts | 141° |
| 2026-05-06 07:35 | 46.68498 | 20.20457 | 36968 ft | 465 kts | 141° |
| 2026-05-06 07:36 | 46.63631 | 20.26584 | 36973 ft | 466 kts | 141° |
| 2026-05-06 07:36 | 46.58727 | 20.32745 | 36977 ft | 466 kts | 141° |
| 2026-05-06 07:37 | 46.53814 | 20.38898 | 36982 ft | 466 kts | 141° |
| 2026-05-06 07:37 | 46.48895 | 20.45043 | 36983 ft | 466 kts | 141° |
| 2026-05-06 07:38 | 46.43977 | 20.51181 | 36987 ft | 467 kts | 141° |
| 2026-05-06 07:38 | 46.39081 | 20.57268 | 36996 ft | 467 kts | 141° |
| 2026-05-06 07:39 | 46.34149 | 20.63403 | 37003 ft | 467 kts | 141° |
| 2026-05-06 07:39 | 46.29212 | 20.69512 | 37009 ft | 467 kts | 141° |
| 2026-05-06 07:40 | 46.24268 | 20.75609 | 37013 ft | 467 kts | 141° |
| 2026-05-06 07:40 | 46.19329 | 20.81691 | 37014 ft | 467 kts | 141° |
| 2026-05-06 07:41 | 46.14418 | 20.87730 | 37022 ft | 467 kts | 141° |
| 2026-05-06 07:41 | 46.09819 | 20.94356 | 37036 ft | 468 kts | 135° |
| 2026-05-06 07:42 | 46.05318 | 21.01131 | 37034 ft | 468 kts | 135° |
| 2026-05-06 07:42 | 46.00812 | 21.07888 | 37042 ft | 467 kts | 135° |
| 2026-05-06 07:43 | 45.96305 | 21.14627 | 37024 ft | 468 kts | 134° |
| 2026-05-06 07:43 | 45.91822 | 21.21327 | 37018 ft | 469 kts | 134° |
| 2026-05-06 07:44 | 45.87295 | 21.28076 | 37018 ft | 469 kts | 134° |
| 2026-05-06 07:44 | 45.82760 | 21.34804 | 37022 ft | 469 kts | 134° |
| 2026-05-06 07:45 | 45.78245 | 21.41483 | 37027 ft | 469 kts | 134° |
| 2026-05-06 07:45 | 45.73704 | 21.48198 | 37032 ft | 469 kts | 134° |
| 2026-05-06 07:46 | 45.69157 | 21.54905 | 37032 ft | 469 kts | 134° |
| 2026-05-06 07:46 | 45.64611 | 21.61591 | 37035 ft | 469 kts | 134° |
| 2026-05-06 07:47 | 45.60064 | 21.68267 | 37041 ft | 468 kts | 134° |
| 2026-05-06 07:47 | 45.55550 | 21.74883 | 37036 ft | 468 kts | 134° |
| 2026-05-06 07:48 | 45.51002 | 21.81520 | 37036 ft | 468 kts | 135° |
| 2026-05-06 07:48 | 45.46442 | 21.88140 | 37029 ft | 468 kts | 135° |
| 2026-05-06 07:49 | 45.41818 | 21.94661 | 37023 ft | 468 kts | 137° |
| 2026-05-06 07:49 | 45.37103 | 22.00973 | 37022 ft | 468 kts | 137° |
| 2026-05-06 07:50 | 45.32347 | 22.07299 | 37026 ft | 468 kts | 137° |
| 2026-05-06 07:50 | 45.27611 | 22.13654 | 37031 ft | 468 kts | 136° |
| 2026-05-06 07:51 | 45.22894 | 22.20019 | 37032 ft | 468 kts | 136° |
| 2026-05-06 07:51 | 45.18169 | 22.26372 | 37030 ft | 468 kts | 137° |
| 2026-05-06 07:52 | 45.13464 | 22.32660 | 37026 ft | 468 kts | 137° |
| 2026-05-06 07:52 | 45.08723 | 22.38982 | 37030 ft | 469 kts | 137° |
| 2026-05-06 07:53 | 45.03975 | 22.45303 | 37030 ft | 469 kts | 137° |
| 2026-05-06 07:53 | 45.00023 | 22.50553 | 37032 ft | 469 kts | 137° |
| 2026-05-06 07:54 | 44.94459 | 22.57913 | 37037 ft | 469 kts | 137° |
| 2026-05-06 07:54 | 44.89726 | 22.64164 | 37041 ft | 469 kts | 137° |
| 2026-05-06 07:55 | 44.84956 | 22.70449 | 37033 ft | 470 kts | 137° |
| 2026-05-06 07:55 | 44.80183 | 22.76738 | 37040 ft | 470 kts | 137° |
| 2026-05-06 07:56 | 44.76211 | 22.81961 | 37044 ft | 470 kts | 137° |
| 2026-05-06 07:56 | 44.70644 | 22.89249 | 37046 ft | 471 kts | 137° |
| 2026-05-06 07:57 | 44.65840 | 22.95513 | 37049 ft | 471 kts | 137° |
| 2026-05-06 07:57 | 44.61034 | 23.01763 | 37054 ft | 471 kts | 137° |
| 2026-05-06 07:58 | 44.57046 | 23.06952 | 37057 ft | 471 kts | 137° |
| 2026-05-06 07:58 | 44.51459 | 23.14202 | 37060 ft | 471 kts | 137° |
| 2026-05-06 07:59 | 44.46646 | 23.20429 | 37062 ft | 470 kts | 137° |
| 2026-05-06 07:59 | 44.42654 | 23.25587 | 37062 ft | 470 kts | 137° |
| 2026-05-06 08:00 | 44.37848 | 23.31790 | 37062 ft | 470 kts | 137° |
| 2026-05-06 08:00 | 44.33039 | 23.37969 | 37061 ft | 470 kts | 137° |
| 2026-05-06 08:01 | 44.28225 | 23.44140 | 37058 ft | 469 kts | 136° |
| 2026-05-06 08:01 | 44.23563 | 23.50424 | 37054 ft | 469 kts | 134° |
| 2026-05-06 08:02 | 44.18949 | 23.56856 | 37052 ft | 469 kts | 134° |
| 2026-05-06 08:02 | 44.14313 | 23.63251 | 37051 ft | 469 kts | 135° |
| 2026-05-06 08:03 | 44.09640 | 23.69596 | 37049 ft | 469 kts | 135° |
| 2026-05-06 08:03 | 44.04960 | 23.75913 | 37051 ft | 469 kts | 135° |
| 2026-05-06 08:04 | 44.00308 | 23.82201 | 37056 ft | 470 kts | 135° |
| 2026-05-06 08:04 | 43.95624 | 23.88518 | 37060 ft | 470 kts | 135° |
| 2026-05-06 08:05 | 43.90934 | 23.94840 | 37064 ft | 470 kts | 135° |
| 2026-05-06 08:05 | 43.86242 | 24.01151 | 37065 ft | 470 kts | 135° |
| 2026-05-06 08:06 | 43.81581 | 24.07398 | 37065 ft | 470 kts | 135° |
| 2026-05-06 08:06 | 43.76887 | 24.13681 | 37064 ft | 470 kts | 135° |
| 2026-05-06 08:07 | 43.72177 | 24.19957 | 37065 ft | 470 kts | 135° |
| 2026-05-06 08:07 | 43.67462 | 24.26214 | 37068 ft | 470 kts | 135° |
| 2026-05-06 08:08 | 43.62772 | 24.32438 | 37071 ft | 471 kts | 135° |
| 2026-05-06 08:08 | 43.58048 | 24.38689 | 37073 ft | 471 kts | 135° |
| 2026-05-06 08:09 | 43.53320 | 24.44945 | 37074 ft | 471 kts | 135° |
| 2026-05-06 08:09 | 43.48581 | 24.51196 | 37076 ft | 471 kts | 135° |
| 2026-05-06 08:10 | 43.43874 | 24.57389 | 37079 ft | 471 kts | 135° |
| 2026-05-06 08:10 | 43.39134 | 24.63616 | 37085 ft | 471 kts | 135° |
| 2026-05-06 08:11 | 43.34395 | 24.69824 | 37077 ft | 471 kts | 135° |
| 2026-05-06 08:11 | 43.29641 | 24.76033 | 37072 ft | 471 kts | 135° |
| 2026-05-06 08:12 | 43.24922 | 24.82191 | 37068 ft | 471 kts | 135° |
| 2026-05-06 08:12 | 43.20170 | 24.88379 | 37062 ft | 471 kts | 135° |
| 2026-05-06 08:13 | 43.15407 | 24.94552 | 37050 ft | 471 kts | 135° |
| 2026-05-06 08:13 | 43.10645 | 25.00720 | 37046 ft | 471 kts | 135° |
| 2026-05-06 08:14 | 43.05927 | 25.06857 | 37043 ft | 471 kts | 135° |
| 2026-05-06 08:14 | 43.01176 | 25.13030 | 37040 ft | 471 kts | 135° |
| 2026-05-06 08:15 | 42.96417 | 25.19197 | 37047 ft | 472 kts | 135° |
| 2026-05-06 08:15 | 42.91651 | 25.25356 | 37045 ft | 472 kts | 135° |
| 2026-05-06 08:16 | 42.86915 | 25.31458 | 37045 ft | 472 kts | 135° |
| 2026-05-06 08:16 | 42.82141 | 25.37593 | 37044 ft | 472 kts | 135° |
| 2026-05-06 08:17 | 42.77365 | 25.43726 | 37048 ft | 472 kts | 135° |
| 2026-05-06 08:17 | 42.72586 | 25.49856 | 37050 ft | 472 kts | 135° |
| 2026-05-06 08:18 | 42.67800 | 25.55970 | 37049 ft | 472 kts | 136° |
| 2026-05-06 08:18 | 42.63037 | 25.62029 | 37049 ft | 472 kts | 136° |
| 2026-05-06 08:19 | 42.58236 | 25.68126 | 37050 ft | 472 kts | 136° |
| 2026-05-06 08:19 | 42.53434 | 25.74222 | 37052 ft | 473 kts | 136° |
| 2026-05-06 08:20 | 42.48637 | 25.80306 | 37056 ft | 473 kts | 136° |
| 2026-05-06 08:20 | 42.43858 | 25.86344 | 37057 ft | 473 kts | 136° |
| 2026-05-06 08:21 | 42.39045 | 25.92408 | 37059 ft | 473 kts | 136° |
| 2026-05-06 08:21 | 42.34223 | 25.98469 | 37065 ft | 473 kts | 136° |
| 2026-05-06 08:22 | 42.29397 | 26.04519 | 37073 ft | 473 kts | 136° |
| 2026-05-06 08:22 | 42.24606 | 26.10523 | 37078 ft | 473 kts | 136° |
| 2026-05-06 08:23 | 42.19776 | 26.16553 | 37078 ft | 473 kts | 136° |
| 2026-05-06 08:23 | 42.14945 | 26.22568 | 37076 ft | 473 kts | 136° |
| 2026-05-06 08:24 | 42.10110 | 26.28577 | 37078 ft | 473 kts | 136° |
| 2026-05-06 08:24 | 42.05314 | 26.34543 | 37081 ft | 472 kts | 136° |
| 2026-05-06 08:25 | 42.00473 | 26.40519 | 37083 ft | 472 kts | 136° |
| 2026-05-06 08:25 | 41.95626 | 26.46471 | 37081 ft | 472 kts | 136° |
| 2026-05-06 08:26 | 41.90766 | 26.52416 | 37078 ft | 472 kts | 136° |
| 2026-05-06 08:26 | 41.86110 | 26.58538 | 37082 ft | 471 kts | 128° |
| 2026-05-06 08:27 | 41.81941 | 26.65319 | 37094 ft | 471 kts | 128° |
| 2026-05-06 08:27 | 41.77753 | 26.72089 | 37093 ft | 472 kts | 128° |
| 2026-05-06 08:28 | 41.73558 | 26.78851 | 37103 ft | 472 kts | 128° |
| 2026-05-06 08:28 | 41.69388 | 26.85555 | 37097 ft | 471 kts | 128° |
| 2026-05-06 08:29 | 41.65200 | 26.92283 | 37103 ft | 471 kts | 128° |
| 2026-05-06 08:29 | 41.61010 | 26.99011 | 37096 ft | 470 kts | 128° |
| 2026-05-06 08:30 | 41.56832 | 27.05729 | 37098 ft | 470 kts | 125° |
| 2026-05-06 08:30 | 41.53655 | 27.13208 | 37095 ft | 465 kts | 111° |
| 2026-05-06 08:31 | 41.51035 | 27.21098 | 37099 ft | 465 kts | 112° |
| 2026-05-06 08:31 | 41.48392 | 27.28968 | 37093 ft | 465 kts | 112° |
| 2026-05-06 08:32 | 41.47060 | 27.32903 | 36862 ft | 465 kts | 112° |
| 2026-05-06 08:32 | 41.45730 | 27.36833 | 36618 ft | 464 kts | 112° |
| 2026-05-06 08:32 | 41.44405 | 27.40759 | 36362 ft | 464 kts | 112° |
| 2026-05-06 08:32 | 41.43089 | 27.44675 | 36109 ft | 464 kts | 112° |
| 2026-05-06 08:33 | 41.41769 | 27.48606 | 35857 ft | 466 kts | 112° |
| 2026-05-06 08:33 | 41.40457 | 27.52502 | 35615 ft | 468 kts | 112° |
| 2026-05-06 08:33 | 41.39114 | 27.56467 | 35371 ft | 470 kts | 112° |
| 2026-05-06 08:33 | 41.37767 | 27.60437 | 35117 ft | 470 kts | 111° |
| 2026-05-06 08:34 | 41.36723 | 27.64540 | 34867 ft | 467 kts | 101° |
| 2026-05-06 08:34 | 41.36240 | 27.73059 | 34368 ft | 460 kts | 82° |
| 2026-05-06 08:34 | 41.36578 | 27.77292 | 34119 ft | 460 kts | 81° |
| 2026-05-06 08:35 | 41.36915 | 27.81529 | 33870 ft | 460 kts | 81° |
| 2026-05-06 08:35 | 41.37247 | 27.85770 | 33620 ft | 460 kts | 82° |
| 2026-05-06 08:35 | 41.37579 | 27.90008 | 33371 ft | 461 kts | 82° |
| 2026-05-06 08:35 | 41.37905 | 27.94202 | 33124 ft | 461 kts | 82° |
| 2026-05-06 08:36 | 41.38231 | 27.98447 | 32875 ft | 462 kts | 82° |
| 2026-05-06 08:36 | 41.38328 | 28.02729 | 32619 ft | 465 kts | 91° |
| 2026-05-06 08:36 | 41.37940 | 28.07005 | 32376 ft | 467 kts | 99° |
| 2026-05-06 08:36 | 41.37308 | 28.11256 | 32131 ft | 468 kts | 99° |
| 2026-05-06 08:37 | 41.36678 | 28.15503 | 31874 ft | 468 kts | 99° |
| 2026-05-06 08:37 | 41.36051 | 28.19758 | 31624 ft | 469 kts | 99° |
| 2026-05-06 08:37 | 41.35425 | 28.24015 | 31374 ft | 469 kts | 99° |
| 2026-05-06 08:37 | 41.34802 | 28.28216 | 31126 ft | 470 kts | 99° |
| 2026-05-06 08:38 | 41.34167 | 28.32485 | 30348 ft | 473 kts | 99° |
| 2026-05-06 08:38 | 41.33524 | 28.36815 | 29165 ft | 480 kts | 99° |
| 2026-05-06 08:38 | 41.32869 | 28.41205 | 28007 ft | 486 kts | 99° |
| 2026-05-06 08:38 | 41.32202 | 28.45615 | 27114 ft | 485 kts | 99° |
| 2026-05-06 08:39 | 41.31541 | 28.49936 | 26930 ft | 468 kts | 99° |
| 2026-05-06 08:39 | 41.30936 | 28.54103 | 26804 ft | 449 kts | 95° |
| 2026-05-06 08:39 | 41.30749 | 28.58153 | 26624 ft | 432 kts | 87° |
| 2026-05-06 08:39 | 41.30764 | 28.62045 | 26266 ft | 423 kts | 87° |
| 2026-05-06 08:40 | 41.30775 | 28.65933 | 25841 ft | 417 kts | 87° |
| 2026-05-06 08:40 | 41.30784 | 28.69762 | 25394 ft | 413 kts | 87° |
| 2026-05-06 08:40 | 41.30793 | 28.73567 | 24948 ft | 410 kts | 87° |
| 2026-05-06 08:40 | 41.30800 | 28.77338 | 24505 ft | 406 kts | 87° |
| 2026-05-06 08:41 | 41.30805 | 28.81089 | 23932 ft | 405 kts | 87° |
| 2026-05-06 08:41 | 41.30804 | 28.84816 | 23472 ft | 401 kts | 87° |
| 2026-05-06 08:41 | 41.30799 | 28.88501 | 23031 ft | 397 kts | 87° |
| 2026-05-06 08:41 | 41.30793 | 28.92113 | 22580 ft | 394 kts | 87° |
| 2026-05-06 08:42 | 41.30786 | 28.95741 | 22137 ft | 391 kts | 87° |
| 2026-05-06 08:42 | 41.30778 | 28.99345 | 21693 ft | 388 kts | 87° |
| 2026-05-06 08:42 | 41.30770 | 29.02922 | 21256 ft | 385 kts | 87° |
| 2026-05-06 08:42 | 41.30763 | 29.06468 | 20824 ft | 383 kts | 87° |
| 2026-05-06 08:43 | 41.30755 | 29.09993 | 20384 ft | 380 kts | 87° |
| 2026-05-06 08:43 | 41.30747 | 29.13480 | 20118 ft | 372 kts | 87° |
| 2026-05-06 08:43 | 41.30737 | 29.16858 | 19991 ft | 359 kts | 87° |
| 2026-05-06 08:43 | 41.30725 | 29.20088 | 19863 ft | 348 kts | 87° |
| 2026-05-06 08:44 | 41.30717 | 29.23307 | 19622 ft | 341 kts | 87° |
| 2026-05-06 08:44 | 41.30732 | 29.26401 | 19268 ft | 338 kts | 86° |
| 2026-05-06 08:44 | 41.30757 | 29.29503 | 18911 ft | 334 kts | 86° |
| 2026-05-06 08:44 | 41.30784 | 29.32585 | 18563 ft | 331 kts | 86° |
| 2026-05-06 08:45 | 41.30811 | 29.35639 | 18221 ft | 329 kts | 86° |
| 2026-05-06 08:45 | 41.30868 | 29.38663 | 17881 ft | 325 kts | 81° |
| 2026-05-06 08:45 | 41.31363 | 29.41553 | 17547 ft | 318 kts | 66° |
| 2026-05-06 08:45 | 41.32378 | 29.44133 | 17214 ft | 313 kts | 52° |
| 2026-05-06 08:46 | 41.33810 | 29.46240 | 16896 ft | 308 kts | 38° |
| 2026-05-06 08:46 | 41.35558 | 29.47915 | 16568 ft | 306 kts | 33° |
| 2026-05-06 08:46 | 41.37292 | 29.49491 | 16251 ft | 305 kts | 33° |
| 2026-05-06 08:46 | 41.39041 | 29.51088 | 15916 ft | 304 kts | 33° |
| 2026-05-06 08:47 | 41.40778 | 29.52677 | 15602 ft | 303 kts | 33° |
| 2026-05-06 08:47 | 41.42512 | 29.54266 | 15264 ft | 302 kts | 33° |
| 2026-05-06 08:47 | 41.44236 | 29.55845 | 14930 ft | 300 kts | 33° |
| 2026-05-06 08:47 | 41.45934 | 29.57457 | 14594 ft | 299 kts | 40° |
| 2026-05-06 08:48 | 41.47169 | 29.59662 | 14267 ft | 300 kts | 66° |
| 2026-05-06 08:48 | 41.47524 | 29.62393 | 14000 ft | 302 kts | 93° |
| 2026-05-06 08:48 | 41.46907 | 29.65079 | 13937 ft | 309 kts | 118° |
| 2026-05-06 08:48 | 41.45737 | 29.67451 | 13867 ft | 311 kts | 122° |
| 2026-05-06 08:49 | 41.44508 | 29.69822 | 13785 ft | 311 kts | 123° |
| 2026-05-06 08:49 | 41.43265 | 29.72186 | 13689 ft | 311 kts | 123° |
| 2026-05-06 08:49 | 41.42024 | 29.74539 | 13597 ft | 310 kts | 123° |
| 2026-05-06 08:49 | 41.40786 | 29.76893 | 13508 ft | 310 kts | 123° |
| 2026-05-06 08:50 | 41.39552 | 29.79247 | 13416 ft | 307 kts | 123° |
| 2026-05-06 08:50 | 41.38349 | 29.81541 | 13290 ft | 298 kts | 123° |
| 2026-05-06 08:50 | 41.37225 | 29.83817 | 13125 ft | 290 kts | 115° |
| 2026-05-06 08:50 | 41.36346 | 29.86209 | 12851 ft | 287 kts | 114° |
| 2026-05-06 08:51 | 41.35486 | 29.88561 | 12558 ft | 286 kts | 114° |
| 2026-05-06 08:51 | 41.34615 | 29.90928 | 12278 ft | 284 kts | 114° |
| 2026-05-06 08:51 | 41.33747 | 29.93281 | 11954 ft | 283 kts | 114° |
| 2026-05-06 08:51 | 41.32822 | 29.95577 | 11695 ft | 280 kts | 122° |
| 2026-05-06 08:52 | 41.31573 | 29.97552 | 11549 ft | 279 kts | 132° |
| 2026-05-06 08:52 | 41.30242 | 29.99433 | 11399 ft | 278 kts | 132° |
| 2026-05-06 08:52 | 41.28918 | 30.01304 | 11251 ft | 278 kts | 132° |
| 2026-05-06 08:52 | 41.27601 | 30.03168 | 11118 ft | 275 kts | 132° |
| 2026-05-06 08:53 | 41.26292 | 30.05007 | 10965 ft | 273 kts | 136° |
| 2026-05-06 08:53 | 41.24803 | 30.06511 | 10829 ft | 273 kts | 149° |
| 2026-05-06 08:53 | 41.23154 | 30.07754 | 10686 ft | 273 kts | 150° |
| 2026-05-06 08:53 | 41.21505 | 30.09003 | 10547 ft | 272 kts | 150° |
| 2026-05-06 08:54 | 41.19866 | 30.10249 | 10404 ft | 272 kts | 150° |
| 2026-05-06 08:54 | 41.18226 | 30.11495 | 10265 ft | 271 kts | 150° |
| 2026-05-06 08:54 | 41.16543 | 30.12593 | 10124 ft | 270 kts | 161° |
| 2026-05-06 08:54 | 41.14730 | 30.13213 | 9984 ft | 269 kts | 167° |
| 2026-05-06 08:55 | 41.12904 | 30.13759 | 9842 ft | 268 kts | 167° |
| 2026-05-06 08:55 | 41.11085 | 30.14308 | 9706 ft | 268 kts | 167° |
| 2026-05-06 08:55 | 41.09296 | 30.14850 | 9570 ft | 267 kts | 167° |
| 2026-05-06 08:55 | 41.07483 | 30.15391 | 9436 ft | 266 kts | 170° |
| 2026-05-06 08:56 | 41.05646 | 30.15546 | 9291 ft | 265 kts | 184° |
| 2026-05-06 08:56 | 41.03815 | 30.15362 | 9132 ft | 264 kts | 185° |
| 2026-05-06 08:56 | 41.01985 | 30.15186 | 8978 ft | 263 kts | 184° |
| 2026-05-06 08:56 | 41.00175 | 30.14906 | 8819 ft | 261 kts | 197° |
| 2026-05-06 08:57 | 40.98602 | 30.13782 | 8673 ft | 259 kts | 223° |
| 2026-05-06 08:57 | 40.97572 | 30.11850 | 8518 ft | 258 kts | 249° |
| 2026-05-06 08:57 | 40.97289 | 30.09559 | 8374 ft | 257 kts | 275° |
| 2026-05-06 08:57 | 40.97632 | 30.07237 | 8226 ft | 258 kts | 283° |
| 2026-05-06 08:58 | 40.98028 | 30.04923 | 8077 ft | 258 kts | 282° |
| 2026-05-06 08:58 | 40.98420 | 30.02616 | 7928 ft | 257 kts | 282° |
| 2026-05-06 08:58 | 40.98811 | 30.00305 | 7782 ft | 256 kts | 282° |
| 2026-05-06 08:58 | 40.99200 | 29.98006 | 7657 ft | 256 kts | 282° |
| 2026-05-06 08:59 | 40.99589 | 29.95707 | 7518 ft | 255 kts | 282° |
| 2026-05-06 08:59 | 40.99973 | 29.93419 | 7408 ft | 255 kts | 283° |
| 2026-05-06 08:59 | 41.00352 | 29.91157 | 7289 ft | 254 kts | 283° |
| 2026-05-06 08:59 | 41.00734 | 29.88874 | 7166 ft | 254 kts | 283° |
| 2026-05-06 09:00 | 41.01116 | 29.86597 | 7046 ft | 252 kts | 283° |
| 2026-05-06 09:00 | 41.01489 | 29.84375 | 6924 ft | 244 kts | 283° |
| 2026-05-06 09:00 | 41.01855 | 29.82191 | 6799 ft | 242 kts | 283° |
| 2026-05-06 09:00 | 41.02218 | 29.80024 | 6676 ft | 241 kts | 283° |
| 2026-05-06 09:01 | 41.02580 | 29.77858 | 6555 ft | 240 kts | 282° |
| 2026-05-06 09:01 | 41.02938 | 29.75701 | 6427 ft | 240 kts | 282° |
| 2026-05-06 09:01 | 41.03296 | 29.73548 | 6305 ft | 239 kts | 282° |
| 2026-05-06 09:01 | 41.03639 | 29.71423 | 6184 ft | 239 kts | 278° |
| 2026-05-06 09:02 | 41.03627 | 29.69185 | 6068 ft | 258 kts | 259° |
| 2026-05-06 09:02 | 41.03015 | 29.66903 | 5940 ft | 263 kts | 244° |
| 2026-05-06 09:02 | 41.02235 | 29.64773 | 5780 ft | 253 kts | 244° |
| 2026-05-06 09:02 | 41.01470 | 29.62673 | 5444 ft | 251 kts | 244° |
| 2026-05-06 09:03 | 41.00727 | 29.60630 | 5291 ft | 241 kts | 244° |
| 2026-05-06 09:03 | 41.00016 | 29.58681 | 5161 ft | 232 kts | 244° |
| 2026-05-06 09:03 | 40.99318 | 29.56762 | 4884 ft | 231 kts | 244° |
| 2026-05-06 09:03 | 40.98630 | 29.54876 | 4554 ft | 231 kts | 244° |
| 2026-05-06 09:04 | 40.97932 | 29.52963 | 4198 ft | 231 kts | 244° |
| 2026-05-06 09:04 | 40.97230 | 29.51041 | 3836 ft | 232 kts | 244° |
| 2026-05-06 09:04 | 40.96527 | 29.49116 | 3476 ft | 233 kts | 244° |
| 2026-05-06 09:04 | 40.95822 | 29.47188 | 3120 ft | 233 kts | 244° |
| 2026-05-06 09:05 | 40.95112 | 29.45250 | 2768 ft | 236 kts | 244° |
| 2026-05-06 09:05 | 40.94394 | 29.43288 | 2393 ft | 237 kts | 244° |
| 2026-05-06 09:05 | 40.93677 | 29.41332 | 2010 ft | 234 kts | 244° |
| 2026-05-06 09:05 | 40.92979 | 29.39429 | 1673 ft | 227 kts | 244° |
| 2026-05-06 09:06 | 40.92297 | 29.37570 | 1312 ft | 221 kts | 244° |
| 2026-05-06 09:06 | 40.91638 | 29.35777 | 997 ft | 210 kts | 244° |
| 2026-05-06 09:06 | 40.91045 | 29.34162 | 702 ft | 184 kts | 244° |
| 2026-05-06 09:06 | 40.90519 | 29.32733 | 406 ft | 163 kts | 244° |
| 2026-05-06 09:07 | 40.90059 | 29.31505 | 362 ft | 135 kts | 243° |
| 2026-05-06 09:07 | 40.89683 | 29.30424 | 1042 ft | 127 kts | 247° |
| 2026-05-06 09:07 | 40.89317 | 29.29320 | 1635 ft | 134 kts | 244° |
| 2026-05-06 09:07 | 40.88898 | 29.28185 | 2201 ft | 146 kts | 243° |
| 2026-05-06 09:08 | 40.88414 | 29.26893 | 2487 ft | 169 kts | 243° |
| 2026-05-06 09:08 | 40.87872 | 29.25423 | 2780 ft | 191 kts | 244° |
| 2026-05-06 09:08 | 40.87263 | 29.23738 | 3082 ft | 214 kts | 246° |
| 2026-05-06 09:08 | 40.87007 | 29.21772 | 3631 ft | 224 kts | 278° |
| 2026-05-06 09:09 | 40.87633 | 29.19907 | 4417 ft | 227 kts | 311° |
| 2026-05-06 09:09 | 40.88935 | 29.18715 | 4888 ft | 231 kts | 341° |
| 2026-05-06 09:09 | 40.90515 | 29.18501 | 4997 ft | 229 kts | 3° |
| 2026-05-06 09:09 | 40.92095 | 29.18691 | 5014 ft | 228 kts | 6° |
| 2026-05-06 09:10 | 40.93672 | 29.18932 | 5022 ft | 228 kts | 6° |
| 2026-05-06 09:10 | 40.95249 | 29.19178 | 5017 ft | 228 kts | 6° |
| 2026-05-06 09:10 | 40.96803 | 29.19423 | 5013 ft | 228 kts | 6° |
| 2026-05-06 09:10 | 40.98325 | 29.19938 | 5011 ft | 228 kts | 30° |
| 2026-05-06 09:11 | 40.99435 | 29.21411 | 5024 ft | 229 kts | 59° |
| 2026-05-06 09:11 | 41.00142 | 29.23309 | 5020 ft | 231 kts | 65° |
| 2026-05-06 09:11 | 41.00783 | 29.25257 | 5012 ft | 231 kts | 66° |
| 2026-05-06 09:11 | 41.01419 | 29.27210 | 5011 ft | 231 kts | 66° |
| 2026-05-06 09:12 | 41.02054 | 29.29159 | 5013 ft | 231 kts | 66° |
| 2026-05-06 09:12 | 41.02688 | 29.31109 | 5013 ft | 231 kts | 66° |
| 2026-05-06 09:12 | 41.03324 | 29.33061 | 5011 ft | 230 kts | 66° |
| 2026-05-06 09:12 | 41.03930 | 29.34926 | 5012 ft | 217 kts | 66° |
| 2026-05-06 09:13 | 41.04510 | 29.36716 | 5018 ft | 207 kts | 66° |
| 2026-05-06 09:13 | 41.05076 | 29.38463 | 5016 ft | 205 kts | 66° |
| 2026-05-06 09:13 | 41.05638 | 29.40199 | 5013 ft | 205 kts | 66° |
| 2026-05-06 09:13 | 41.06198 | 29.41929 | 5015 ft | 205 kts | 66° |
| 2026-05-06 09:14 | 41.06762 | 29.43665 | 4925 ft | 205 kts | 66° |
| 2026-05-06 09:14 | 41.07325 | 29.45401 | 4789 ft | 205 kts | 66° |
| 2026-05-06 09:14 | 41.07887 | 29.47133 | 4629 ft | 204 kts | 66° |
| 2026-05-06 09:14 | 41.08440 | 29.48834 | 4493 ft | 204 kts | 66° |
| 2026-05-06 09:15 | 41.09001 | 29.50557 | 4340 ft | 203 kts | 66° |
| 2026-05-06 09:15 | 41.09561 | 29.52273 | 4199 ft | 202 kts | 66° |
| 2026-05-06 09:15 | 41.10122 | 29.53987 | 4050 ft | 203 kts | 66° |
| 2026-05-06 09:15 | 41.10682 | 29.55698 | 3902 ft | 202 kts | 66° |
| 2026-05-06 09:16 | 41.11242 | 29.57407 | 3810 ft | 202 kts | 66° |
| 2026-05-06 09:16 | 41.11761 | 29.59136 | 3714 ft | 202 kts | 78° |
| 2026-05-06 09:16 | 41.11735 | 29.60969 | 3609 ft | 201 kts | 109° |
| 2026-05-06 09:16 | 41.11019 | 29.62526 | 3529 ft | 199 kts | 139° |
| 2026-05-06 09:17 | 41.09835 | 29.63379 | 3513 ft | 198 kts | 169° |
| 2026-05-06 09:17 | 41.08477 | 29.63312 | 3514 ft | 197 kts | 198° |
| 2026-05-06 09:17 | 41.07179 | 29.62718 | 3512 ft | 198 kts | 200° |
| 2026-05-06 09:17 | 41.05879 | 29.62123 | 3511 ft | 198 kts | 199° |
| 2026-05-06 09:18 | 41.04573 | 29.61527 | 3516 ft | 198 kts | 200° |
| 2026-05-06 09:18 | 41.03268 | 29.60933 | 3509 ft | 198 kts | 199° |
| 2026-05-06 09:18 | 41.01964 | 29.60341 | 3509 ft | 198 kts | 199° |
| 2026-05-06 09:18 | 41.00741 | 29.59536 | 3516 ft | 198 kts | 219° |
| 2026-05-06 09:19 | 40.99842 | 29.58177 | 3521 ft | 197 kts | 242° |
| 2026-05-06 09:19 | 40.99246 | 29.56574 | 3523 ft | 197 kts | 244° |
| 2026-05-06 09:19 | 40.98652 | 29.54937 | 3528 ft | 196 kts | 244° |
| 2026-05-06 09:19 | 40.98057 | 29.53305 | 3532 ft | 196 kts | 244° |
| 2026-05-06 09:20 | 40.97486 | 29.51742 | 3519 ft | 184 kts | 244° |
| 2026-05-06 09:20 | 40.96937 | 29.50240 | 3512 ft | 180 kts | 244° |
| 2026-05-06 09:20 | 40.96394 | 29.48756 | 3359 ft | 178 kts | 245° |
| 2026-05-06 09:20 | 40.95858 | 29.47288 | 3126 ft | 177 kts | 244° |
| 2026-05-06 09:21 | 40.95326 | 29.45835 | 2875 ft | 176 kts | 244° |
| 2026-05-06 09:21 | 40.94803 | 29.44405 | 2605 ft | 174 kts | 244° |
| 2026-05-06 09:21 | 40.94290 | 29.43006 | 2346 ft | 163 kts | 244° |
| 2026-05-06 09:21 | 40.93821 | 29.41724 | 2094 ft | 149 kts | 244° |
| 2026-05-06 09:22 | 40.93379 | 29.40519 | 1873 ft | 142 kts | 244° |
| 2026-05-06 09:22 | 40.92954 | 29.39362 | 1657 ft | 138 kts | 244° |
| 2026-05-06 09:22 | 40.92537 | 29.38226 | 1438 ft | 137 kts | 244° |
| 2026-05-06 09:22 | 40.92122 | 29.37095 | 1245 ft | 136 kts | 244° |
| 2026-05-06 09:23 | 40.91713 | 29.35982 | 1020 ft | 136 kts | 244° |
| 2026-05-06 09:23 | 40.91301 | 29.34860 | 811 ft | 136 kts | 244° |
| 2026-05-06 09:23 | 40.90887 | 29.33731 | 600 ft | 137 kts | 244° |
| 2026-05-06 09:23 | 40.90476 | 29.32602 | 373 ft | 137 kts | 244° |
| 2026-05-06 09:24 | 40.90087 | 29.31541 | 313 ft | 115 kts | 244° |
| 2026-05-06 09:24 | 40.89811 | 29.30783 | 312 ft | 67 kts | 244° |
| 2026-05-06 09:24 | 40.89667 | 29.30401 | 309 ft | 32 kts | 243° |
| 2026-05-06 09:24 | 40.89626 | 29.30141 | 309 ft | 24 kts | 269° |
| 2026-05-06 09:25 | 40.89633 | 29.29981 | 309 ft | 17 kts | 275° |
| 2026-05-06 09:25 | 40.89696 | 29.29934 | 308 ft | 11 kts | 29° |
| 2026-05-06 09:25 | 40.89731 | 29.30012 | 308 ft | 9 kts | 65° |
| 2026-05-06 09:25 | 40.89757 | 29.30087 | 308 ft | 10 kts | 66° |
| 2026-05-06 09:26 | 40.89789 | 29.30179 | 310 ft | 13 kts | 64° |
| 2026-05-06 09:26 | 40.89836 | 29.30307 | 311 ft | 16 kts | 64° |
| 2026-05-06 09:26 | 40.89881 | 29.30429 | 310 ft | 14 kts | 64° |
| 2026-05-06 09:26 | 40.89930 | 29.30561 | 311 ft | 19 kts | 64° |
| 2026-05-06 09:27 | 40.89995 | 29.30737 | 310 ft | 24 kts | 64° |
| 2026-05-06 09:27 | 40.90064 | 29.30908 | 310 ft | 17 kts | 46° |
| 2026-05-06 09:27 | 40.90165 | 29.30903 | 311 ft | 13 kts | 333° |
| 2026-05-06 09:27 | 40.90236 | 29.30879 | 311 ft | 9 kts | 27° |
| 2026-05-06 09:28 | 40.90271 | 29.30934 | 311 ft | 6 kts | 26° |
| 2026-05-06 09:28 | 40.90306 | 29.30922 | 311 ft | 5 kts | 335° |
| 2026-05-06 09:28 | 40.90334 | 29.30905 | 309 ft | 2 kts | 334° |